sensor_id;sensor_type;location;lat;lon;timestamp;P1;durP1;ratioP1;P2;durP2;ratioP2
51602;SDS011;37954;51.980;5.850;2023-11-21T00:00:59;15.73;;;10.77;;
51602;SDS011;37954;51.980;5.850;2023-11-21T00:05:13;14.30;;;10.70;;
51602;SDS011;37954;51.980;5.850;2023-11-21T00:09:25;16.38;;;11.13;;
51602;SDS011;37954;51.980;5.850;2023-11-21T00:13:37;17.00;;;10.85;;
51602;SDS011;37954;51.980;5.850;2023-11-21T00:17:49;17.33;;;11.47;;
51602;SDS011;37954;51.980;5.850;2023-11-21T00:22:01;16.80;;;10.55;;
51602;SDS011;37954;51.980;5.850;2023-11-21T00:26:12;17.88;;;11.32;;
51602;SDS011;37954;51.980;5.850;2023-11-21T00:30:28;18.50;;;11.10;;
51602;SDS011;37954;51.980;5.850;2023-11-21T00:34:41;15.50;;;10.50;;
51602;SDS011;37954;51.980;5.850;2023-11-21T00:38:53;15.88;;;10.32;;
51602;SDS011;37954;51.980;5.850;2023-11-21T00:43:07;15.68;;;11.32;;
51602;SDS011;37954;51.980;5.850;2023-11-21T00:47:18;16.08;;;10.82;;
51602;SDS011;37954;51.980;5.850;2023-11-21T00:51:30;18.00;;;10.77;;
51602;SDS011;37954;51.980;5.850;2023-11-21T00:55:42;17.80;;;11.82;;
51602;SDS011;37954;51.980;5.850;2023-11-21T00:59:54;20.57;;;11.17;;
51602;SDS011;37954;51.980;5.850;2023-11-21T01:04:06;15.40;;;11.10;;
51602;SDS011;37954;51.980;5.850;2023-11-21T01:08:18;16.90;;;11.83;;
51602;SDS011;37954;51.980;5.850;2023-11-21T01:12:29;17.02;;;11.00;;
51602;SDS011;37954;51.980;5.850;2023-11-21T01:16:41;21.45;;;12.80;;
51602;SDS011;37954;51.980;5.850;2023-11-21T01:20:53;20.93;;;12.63;;
51602;SDS011;37954;51.980;5.850;2023-11-21T01:25:04;24.20;;;13.77;;
51602;SDS011;37954;51.980;5.850;2023-11-21T01:29:22;27.83;;;13.77;;
51602;SDS011;37954;51.980;5.850;2023-11-21T01:33:33;21.40;;;13.23;;
51602;SDS011;37954;51.980;5.850;2023-11-21T01:37:45;28.20;;;13.48;;
51602;SDS011;37954;51.980;5.850;2023-11-21T01:41:57;32.35;;;14.25;;
51602;SDS011;37954;51.980;5.850;2023-11-21T01:46:12;22.58;;;13.57;;
51602;SDS011;37954;51.980;5.850;2023-11-21T01:50:24;26.63;;;14.30;;
51602;SDS011;37954;51.980;5.850;2023-11-21T01:54:37;56.45;;;16.30;;
51602;SDS011;37954;51.980;5.850;2023-11-21T01:58:49;24.00;;;14.18;;
51602;SDS011;37954;51.980;5.850;2023-11-21T02:03:02;34.45;;;15.18;;
51602;SDS011;37954;51.980;5.850;2023-11-21T02:07:14;33.38;;;14.70;;
51602;SDS011;37954;51.980;5.850;2023-11-21T02:11:26;31.27;;;14.43;;
51602;SDS011;37954;51.980;5.850;2023-11-21T02:15:38;27.95;;;15.20;;
51602;SDS011;37954;51.980;5.850;2023-11-21T02:19:50;39.55;;;16.08;;
51602;SDS011;37954;51.980;5.850;2023-11-21T02:24:02;36.90;;;16.08;;
51602;SDS011;37954;51.980;5.850;2023-11-21T02:28:14;29.23;;;14.18;;
51602;SDS011;37954;51.980;5.850;2023-11-21T02:32:27;22.75;;;13.75;;
51602;SDS011;37954;51.980;5.850;2023-11-21T02:36:39;25.60;;;14.48;;
51602;SDS011;37954;51.980;5.850;2023-11-21T02:40:51;30.42;;;16.00;;
51602;SDS011;37954;51.980;5.850;2023-11-21T02:45:02;41.40;;;15.25;;
51602;SDS011;37954;51.980;5.850;2023-11-21T02:49:14;40.85;;;17.25;;
51602;SDS011;37954;51.980;5.850;2023-11-21T02:53:27;33.35;;;14.85;;
51602;SDS011;37954;51.980;5.850;2023-11-21T02:57:38;47.35;;;16.33;;
51602;SDS011;37954;51.980;5.850;2023-11-21T03:01:50;35.33;;;15.80;;
51602;SDS011;37954;51.980;5.850;2023-11-21T03:06:02;29.17;;;16.42;;
51602;SDS011;37954;51.980;5.850;2023-11-21T03:10:14;52.33;;;16.80;;
51602;SDS011;37954;51.980;5.850;2023-11-21T03:14:25;38.88;;;17.02;;
51602;SDS011;37954;51.980;5.850;2023-11-21T03:18:38;23.98;;;15.07;;
51602;SDS011;37954;51.980;5.850;2023-11-21T03:22:50;27.05;;;14.60;;
51602;SDS011;37954;51.980;5.850;2023-11-21T03:27:02;23.10;;;14.63;;
51602;SDS011;37954;51.980;5.850;2023-11-21T03:31:15;23.45;;;14.48;;
51602;SDS011;37954;51.980;5.850;2023-11-21T03:35:28;28.40;;;15.82;;
51602;SDS011;37954;51.980;5.850;2023-11-21T03:39:40;35.08;;;15.38;;
51602;SDS011;37954;51.980;5.850;2023-11-21T03:43:51;27.33;;;14.70;;
51602;SDS011;37954;51.980;5.850;2023-11-21T03:48:03;22.80;;;14.50;;
51602;SDS011;37954;51.980;5.850;2023-11-21T03:52:15;22.80;;;14.25;;
51602;SDS011;37954;51.980;5.850;2023-11-21T03:56:27;22.60;;;13.48;;
51602;SDS011;37954;51.980;5.850;2023-11-21T04:00:39;19.52;;;13.50;;
51602;SDS011;37954;51.980;5.850;2023-11-21T04:04:50;22.73;;;14.32;;
51602;SDS011;37954;51.980;5.850;2023-11-21T04:09:02;34.15;;;15.77;;
51602;SDS011;37954;51.980;5.850;2023-11-21T04:13:15;31.55;;;13.05;;
51602;SDS011;37954;51.980;5.850;2023-11-21T04:17:27;29.67;;;14.38;;
51602;SDS011;37954;51.980;5.850;2023-11-21T04:21:39;33.80;;;15.07;;
51602;SDS011;37954;51.980;5.850;2023-11-21T04:25:50;24.00;;;13.77;;
51602;SDS011;37954;51.980;5.850;2023-11-21T04:30:03;32.67;;;15.55;;
51602;SDS011;37954;51.980;5.850;2023-11-21T04:34:16;37.83;;;15.57;;
51602;SDS011;37954;51.980;5.850;2023-11-21T04:38:28;44.90;;;14.77;;
51602;SDS011;37954;51.980;5.850;2023-11-21T04:42:39;40.17;;;12.75;;
51602;SDS011;37954;51.980;5.850;2023-11-21T04:46:51;27.15;;;12.73;;
51602;SDS011;37954;51.980;5.850;2023-11-21T04:51:03;23.05;;;12.73;;
51602;SDS011;37954;51.980;5.850;2023-11-21T04:55:15;19.15;;;12.30;;
51602;SDS011;37954;51.980;5.850;2023-11-21T04:59:27;18.25;;;11.80;;
51602;SDS011;37954;51.980;5.850;2023-11-21T05:03:39;14.23;;;10.75;;
51602;SDS011;37954;51.980;5.850;2023-11-21T05:07:50;12.88;;;10.00;;
51602;SDS011;37954;51.980;5.850;2023-11-21T05:12:04;20.70;;;11.25;;
51602;SDS011;37954;51.980;5.850;2023-11-21T05:16:16;15.15;;;10.88;;
51602;SDS011;37954;51.980;5.850;2023-11-21T05:20:28;16.80;;;10.73;;
51602;SDS011;37954;51.980;5.850;2023-11-21T05:24:39;17.80;;;11.18;;
51602;SDS011;37954;51.980;5.850;2023-11-21T05:28:51;17.45;;;10.65;;
51602;SDS011;37954;51.980;5.850;2023-11-21T05:33:02;19.73;;;12.00;;
51602;SDS011;37954;51.980;5.850;2023-11-21T05:37:14;17.50;;;11.20;;
51602;SDS011;37954;51.980;5.850;2023-11-21T05:41:26;14.93;;;10.85;;
51602;SDS011;37954;51.980;5.850;2023-11-21T05:45:37;18.98;;;11.77;;
51602;SDS011;37954;51.980;5.850;2023-11-21T05:49:49;18.98;;;12.07;;
51602;SDS011;37954;51.980;5.850;2023-11-21T05:54:03;17.65;;;11.85;;
51602;SDS011;37954;51.980;5.850;2023-11-21T05:58:15;17.08;;;12.05;;
51602;SDS011;37954;51.980;5.850;2023-11-21T06:02:26;18.35;;;12.25;;
51602;SDS011;37954;51.980;5.850;2023-11-21T06:06:38;17.67;;;11.73;;
51602;SDS011;37954;51.980;5.850;2023-11-21T06:10:50;18.55;;;12.15;;
51602;SDS011;37954;51.980;5.850;2023-11-21T06:15:02;15.63;;;11.27;;
51602;SDS011;37954;51.980;5.850;2023-11-21T06:19:19;16.33;;;11.48;;
51602;SDS011;37954;51.980;5.850;2023-11-21T06:23:31;13.52;;;10.10;;
51602;SDS011;37954;51.980;5.850;2023-11-21T06:27:43;16.83;;;11.35;;
51602;SDS011;37954;51.980;5.850;2023-11-21T06:31:56;18.83;;;11.45;;
51602;SDS011;37954;51.980;5.850;2023-11-21T06:36:08;16.65;;;11.00;;
51602;SDS011;37954;51.980;5.850;2023-11-21T06:40:22;14.48;;;10.55;;
51602;SDS011;37954;51.980;5.850;2023-11-21T06:44:34;15.90;;;10.63;;
51602;SDS011;37954;51.980;5.850;2023-11-21T06:48:46;15.82;;;11.07;;
51602;SDS011;37954;51.980;5.850;2023-11-21T06:52:59;19.83;;;12.80;;
51602;SDS011;37954;51.980;5.850;2023-11-21T06:57:13;16.52;;;11.73;;
51602;SDS011;37954;51.980;5.850;2023-11-21T07:01:25;21.15;;;13.35;;
51602;SDS011;37954;51.980;5.850;2023-11-21T07:05:37;17.00;;;12.35;;
51602;SDS011;37954;51.980;5.850;2023-11-21T07:09:49;17.60;;;13.45;;
51602;SDS011;37954;51.980;5.850;2023-11-21T07:14:00;21.20;;;14.60;;
51602;SDS011;37954;51.980;5.850;2023-11-21T07:18:18;21.08;;;13.73;;
51602;SDS011;37954;51.980;5.850;2023-11-21T07:22:30;18.38;;;12.77;;
51602;SDS011;37954;51.980;5.850;2023-11-21T07:26:41;21.15;;;13.35;;
51602;SDS011;37954;51.980;5.850;2023-11-21T07:30:53;20.08;;;14.32;;
51602;SDS011;37954;51.980;5.850;2023-11-21T07:35:05;20.02;;;14.25;;
51602;SDS011;37954;51.980;5.850;2023-11-21T07:39:16;21.27;;;15.15;;
51602;SDS011;37954;51.980;5.850;2023-11-21T07:43:28;23.95;;;14.73;;
51602;SDS011;37954;51.980;5.850;2023-11-21T07:47:46;20.73;;;13.90;;
51602;SDS011;37954;51.980;5.850;2023-11-21T07:51:58;20.98;;;13.77;;
51602;SDS011;37954;51.980;5.850;2023-11-21T07:56:09;18.15;;;12.75;;
51602;SDS011;37954;51.980;5.850;2023-11-21T08:00:21;19.92;;;13.10;;
51602;SDS011;37954;51.980;5.850;2023-11-21T08:04:33;18.77;;;12.80;;
51602;SDS011;37954;51.980;5.850;2023-11-21T08:08:46;20.85;;;13.52;;
51602;SDS011;37954;51.980;5.850;2023-11-21T08:12:58;20.10;;;13.48;;
51602;SDS011;37954;51.980;5.850;2023-11-21T08:17:10;21.30;;;13.82;;
51602;SDS011;37954;51.980;5.850;2023-11-21T08:21:24;26.33;;;14.23;;
51602;SDS011;37954;51.980;5.850;2023-11-21T08:25:36;28.90;;;14.98;;
51602;SDS011;37954;51.980;5.850;2023-11-21T08:29:48;24.30;;;14.23;;
51602;SDS011;37954;51.980;5.850;2023-11-21T08:34:00;22.45;;;14.48;;
51602;SDS011;37954;51.980;5.850;2023-11-21T08:38:14;22.45;;;14.70;;
51602;SDS011;37954;51.980;5.850;2023-11-21T08:42:26;29.00;;;17.00;;
51602;SDS011;37954;51.980;5.850;2023-11-21T08:46:41;33.10;;;18.10;;
51602;SDS011;37954;51.980;5.850;2023-11-21T08:50:55;37.25;;;26.23;;
51602;SDS011;37954;51.980;5.850;2023-11-21T08:55:07;36.90;;;24.02;;
51602;SDS011;37954;51.980;5.850;2023-11-21T08:59:19;34.35;;;17.13;;
51602;SDS011;37954;51.980;5.850;2023-11-21T09:03:31;29.67;;;15.65;;
51602;SDS011;37954;51.980;5.850;2023-11-21T09:07:45;24.95;;;15.18;;
51602;SDS011;37954;51.980;5.850;2023-11-21T09:11:57;28.65;;;15.80;;
51602;SDS011;37954;51.980;5.850;2023-11-21T09:16:11;24.50;;;15.60;;
51602;SDS011;37954;51.980;5.850;2023-11-21T09:20:24;25.48;;;16.38;;
51602;SDS011;37954;51.980;5.850;2023-11-21T09:29:00;30.00;;;15.82;;
51602;SDS011;37954;51.980;5.850;2023-11-21T09:33:13;34.13;;;16.45;;
51602;SDS011;37954;51.980;5.850;2023-11-21T09:37:26;28.25;;;16.73;;
51602;SDS011;37954;51.980;5.850;2023-11-21T09:41:51;27.77;;;16.58;;
51602;SDS011;37954;51.980;5.850;2023-11-21T09:46:06;27.27;;;16.02;;
51602;SDS011;37954;51.980;5.850;2023-11-21T09:50:22;34.47;;;17.52;;
51602;SDS011;37954;51.980;5.850;2023-11-21T09:54:35;30.38;;;17.13;;
51602;SDS011;37954;51.980;5.850;2023-11-21T09:58:47;25.45;;;15.70;;
51602;SDS011;37954;51.980;5.850;2023-11-21T10:03:02;29.20;;;16.95;;
51602;SDS011;37954;51.980;5.850;2023-11-21T10:07:14;24.23;;;15.70;;
51602;SDS011;37954;51.980;5.850;2023-11-21T10:11:30;23.90;;;14.90;;
51602;SDS011;37954;51.980;5.850;2023-11-21T10:15:42;16.73;;;12.30;;
51602;SDS011;37954;51.980;5.850;2023-11-21T10:20:00;18.02;;;11.40;;
51602;SDS011;37954;51.980;5.850;2023-11-21T10:24:12;15.77;;;11.27;;
51602;SDS011;37954;51.980;5.850;2023-11-21T10:28:24;13.90;;;10.45;;
51602;SDS011;37954;51.980;5.850;2023-11-21T10:32:36;13.35;;;9.98;;
51602;SDS011;37954;51.980;5.850;2023-11-21T10:36:47;12.88;;;9.20;;
51602;SDS011;37954;51.980;5.850;2023-11-21T10:41:00;13.60;;;9.68;;
51602;SDS011;37954;51.980;5.850;2023-11-21T10:45:12;10.82;;;8.50;;
51602;SDS011;37954;51.980;5.850;2023-11-21T10:49:26;12.00;;;8.40;;
51602;SDS011;37954;51.980;5.850;2023-11-21T10:53:41;12.80;;;9.43;;
51602;SDS011;37954;51.980;5.850;2023-11-21T10:57:55;8.85;;;7.75;;
51602;SDS011;37954;51.980;5.850;2023-11-21T11:02:19;11.88;;;8.23;;
51602;SDS011;37954;51.980;5.850;2023-11-21T11:06:36;10.27;;;8.70;;
51602;SDS011;37954;51.980;5.850;2023-11-21T11:10:50;10.63;;;8.35;;
51602;SDS011;37954;51.980;5.850;2023-11-21T11:15:02;9.90;;;7.97;;
51602;SDS011;37954;51.980;5.850;2023-11-21T11:19:16;13.30;;;8.55;;
51602;SDS011;37954;51.980;5.850;2023-11-21T11:23:45;12.93;;;8.50;;
51602;SDS011;37954;51.980;5.850;2023-11-21T11:28:11;11.85;;;9.18;;
51602;SDS011;37954;51.980;5.850;2023-11-21T11:32:46;11.60;;;9.13;;
51602;SDS011;37954;51.980;5.850;2023-11-21T11:37:03;11.30;;;8.75;;
51602;SDS011;37954;51.980;5.850;2023-11-21T11:41:24;11.50;;;8.77;;
51602;SDS011;37954;51.980;5.850;2023-11-21T11:45:38;11.85;;;9.02;;
51602;SDS011;37954;51.980;5.850;2023-11-21T11:50:03;12.40;;;8.57;;
51602;SDS011;37954;51.980;5.850;2023-11-21T11:54:34;14.45;;;8.10;;
51602;SDS011;37954;51.980;5.850;2023-11-21T11:58:48;12.13;;;7.63;;
51602;SDS011;37954;51.980;5.850;2023-11-21T12:03:00;7.47;;;6.05;;
51602;SDS011;37954;51.980;5.850;2023-11-21T12:07:15;8.18;;;6.38;;
51602;SDS011;37954;51.980;5.850;2023-11-21T12:11:33;6.97;;;5.55;;
51602;SDS011;37954;51.980;5.850;2023-11-21T12:15:46;5.93;;;5.32;;
51602;SDS011;37954;51.980;5.850;2023-11-21T12:20:01;8.40;;;5.93;;
51602;SDS011;37954;51.980;5.850;2023-11-21T12:24:15;7.10;;;5.70;;
51602;SDS011;37954;51.980;5.850;2023-11-21T12:28:27;8.65;;;5.60;;
51602;SDS011;37954;51.980;5.850;2023-11-21T12:32:39;8.88;;;6.32;;
51602;SDS011;37954;51.980;5.850;2023-11-21T12:36:55;9.25;;;6.57;;
51602;SDS011;37954;51.980;5.850;2023-11-21T12:41:06;10.70;;;6.93;;
51602;SDS011;37954;51.980;5.850;2023-11-21T12:45:22;8.00;;;6.60;;
51602;SDS011;37954;51.980;5.850;2023-11-21T12:49:37;9.13;;;6.75;;
51602;SDS011;37954;51.980;5.850;2023-11-21T12:53:49;9.68;;;6.00;;
51602;SDS011;37954;51.980;5.850;2023-11-21T12:58:02;8.30;;;6.30;;
51602;SDS011;37954;51.980;5.850;2023-11-21T13:02:25;7.97;;;6.22;;
51602;SDS011;37954;51.980;5.850;2023-11-21T13:06:38;10.45;;;7.53;;
51602;SDS011;37954;51.980;5.850;2023-11-21T13:10:53;10.40;;;8.07;;
51602;SDS011;37954;51.980;5.850;2023-11-21T13:15:07;14.60;;;9.73;;
51602;SDS011;37954;51.980;5.850;2023-11-21T13:19:19;14.75;;;9.07;;
51602;SDS011;37954;51.980;5.850;2023-11-21T13:23:36;12.73;;;9.48;;
51602;SDS011;37954;51.980;5.850;2023-11-21T13:27:49;16.85;;;9.95;;
51602;SDS011;37954;51.980;5.850;2023-11-21T13:32:01;13.52;;;9.35;;
51602;SDS011;37954;51.980;5.850;2023-11-21T13:36:14;13.18;;;9.73;;
51602;SDS011;37954;51.980;5.850;2023-11-21T13:40:31;12.38;;;9.63;;
51602;SDS011;37954;51.980;5.850;2023-11-21T13:44:45;12.57;;;8.32;;
51602;SDS011;37954;51.980;5.850;2023-11-21T13:49:00;12.68;;;8.63;;
51602;SDS011;37954;51.980;5.850;2023-11-21T13:53:12;10.85;;;8.48;;
51602;SDS011;37954;51.980;5.850;2023-11-21T13:57:33;12.18;;;8.90;;
51602;SDS011;37954;51.980;5.850;2023-11-21T14:01:45;11.10;;;8.15;;
51602;SDS011;37954;51.980;5.850;2023-11-21T14:06:08;12.05;;;7.63;;
51602;SDS011;37954;51.980;5.850;2023-11-21T14:10:25;10.50;;;6.85;;
51602;SDS011;37954;51.980;5.850;2023-11-21T14:14:37;12.07;;;7.78;;
51602;SDS011;37954;51.980;5.850;2023-11-21T14:18:50;12.25;;;8.10;;
51602;SDS011;37954;51.980;5.850;2023-11-21T14:23:12;14.73;;;8.73;;
51602;SDS011;37954;51.980;5.850;2023-11-21T14:27:24;10.40;;;7.97;;
51602;SDS011;37954;51.980;5.850;2023-11-21T14:31:36;13.40;;;8.45;;
51602;SDS011;37954;51.980;5.850;2023-11-21T14:35:48;11.80;;;7.55;;
51602;SDS011;37954;51.980;5.850;2023-11-21T14:40:01;10.10;;;7.82;;
51602;SDS011;37954;51.980;5.850;2023-11-21T14:44:16;11.55;;;8.32;;
51602;SDS011;37954;51.980;5.850;2023-11-21T14:48:28;11.15;;;8.40;;
51602;SDS011;37954;51.980;5.850;2023-11-21T14:53:03;12.75;;;7.47;;
51602;SDS011;37954;51.980;5.850;2023-11-21T14:57:17;12.52;;;9.07;;
51602;SDS011;37954;51.980;5.850;2023-11-21T15:01:31;13.48;;;9.18;;
51602;SDS011;37954;51.980;5.850;2023-11-21T15:06:02;15.70;;;10.98;;
51602;SDS011;37954;51.980;5.850;2023-11-21T15:10:30;15.43;;;9.40;;
51602;SDS011;37954;51.980;5.850;2023-11-21T15:14:57;13.27;;;9.65;;
51602;SDS011;37954;51.980;5.850;2023-11-21T15:19:08;14.20;;;10.52;;
51602;SDS011;37954;51.980;5.850;2023-11-21T15:23:21;14.25;;;10.18;;
51602;SDS011;37954;51.980;5.850;2023-11-21T15:27:32;11.48;;;8.93;;
51602;SDS011;37954;51.980;5.850;2023-11-21T15:31:44;11.90;;;8.88;;
51602;SDS011;37954;51.980;5.850;2023-11-21T15:36:00;10.23;;;8.38;;
51602;SDS011;37954;51.980;5.850;2023-11-21T15:40:11;10.82;;;8.07;;
51602;SDS011;37954;51.980;5.850;2023-11-21T15:44:25;8.48;;;7.28;;
51602;SDS011;37954;51.980;5.850;2023-11-21T15:48:38;8.00;;;7.05;;
51602;SDS011;37954;51.980;5.850;2023-11-21T15:52:54;9.43;;;7.88;;
51602;SDS011;37954;51.980;5.850;2023-11-21T15:57:08;8.95;;;7.47;;
51602;SDS011;37954;51.980;5.850;2023-11-21T16:01:22;8.00;;;6.95;;
51602;SDS011;37954;51.980;5.850;2023-11-21T16:05:33;8.52;;;6.72;;
51602;SDS011;37954;51.980;5.850;2023-11-21T16:09:47;9.80;;;6.63;;
51602;SDS011;37954;51.980;5.850;2023-11-21T16:13:59;7.93;;;6.43;;
51602;SDS011;37954;51.980;5.850;2023-11-21T16:18:11;9.55;;;6.55;;
51602;SDS011;37954;51.980;5.850;2023-11-21T16:22:22;7.97;;;6.70;;
51602;SDS011;37954;51.980;5.850;2023-11-21T16:26:34;8.13;;;6.70;;
51602;SDS011;37954;51.980;5.850;2023-11-21T16:30:47;8.60;;;6.78;;
51602;SDS011;37954;51.980;5.850;2023-11-21T16:34:58;10.27;;;7.80;;
51602;SDS011;37954;51.980;5.850;2023-11-21T16:39:12;9.87;;;7.33;;
51602;SDS011;37954;51.980;5.850;2023-11-21T16:43:24;9.13;;;7.35;;
51602;SDS011;37954;51.980;5.850;2023-11-21T16:47:37;10.18;;;7.20;;
51602;SDS011;37954;51.980;5.850;2023-11-21T16:51:51;9.03;;;7.07;;
51602;SDS011;37954;51.980;5.850;2023-11-21T16:56:04;8.67;;;6.97;;
51602;SDS011;37954;51.980;5.850;2023-11-21T17:00:16;9.73;;;7.63;;
51602;SDS011;37954;51.980;5.850;2023-11-21T17:04:29;9.30;;;7.30;;
51602;SDS011;37954;51.980;5.850;2023-11-21T17:08:41;9.40;;;7.67;;
51602;SDS011;37954;51.980;5.850;2023-11-21T17:12:55;9.97;;;7.23;;
51602;SDS011;37954;51.980;5.850;2023-11-21T17:17:06;12.83;;;9.70;;
51602;SDS011;37954;51.980;5.850;2023-11-21T17:21:20;10.70;;;8.23;;
51602;SDS011;37954;51.980;5.850;2023-11-21T17:25:40;11.60;;;8.27;;
51602;SDS011;37954;51.980;5.850;2023-11-21T17:29:52;11.30;;;8.03;;
51602;SDS011;37954;51.980;5.850;2023-11-21T17:34:05;10.10;;;8.60;;
51602;SDS011;37954;51.980;5.850;2023-11-21T17:38:17;11.13;;;8.27;;
51602;SDS011;37954;51.980;5.850;2023-11-21T17:42:28;11.93;;;8.20;;
51602;SDS011;37954;51.980;5.850;2023-11-21T17:46:41;10.00;;;8.53;;
51602;SDS011;37954;51.980;5.850;2023-11-21T17:50:52;10.37;;;8.07;;
51602;SDS011;37954;51.980;5.850;2023-11-21T17:55:04;10.00;;;7.93;;
51602;SDS011;37954;51.980;5.850;2023-11-21T17:59:17;11.37;;;8.40;;
51602;SDS011;37954;51.980;5.850;2023-11-21T18:03:28;10.60;;;7.70;;
51602;SDS011;37954;51.980;5.850;2023-11-21T18:07:41;10.60;;;7.87;;
51602;SDS011;37954;51.980;5.850;2023-11-21T18:11:53;12.50;;;9.37;;
51602;SDS011;37954;51.980;5.850;2023-11-21T18:16:05;10.07;;;8.50;;
51602;SDS011;37954;51.980;5.850;2023-11-21T18:20:17;11.20;;;8.13;;
51602;SDS011;37954;51.980;5.850;2023-11-21T18:24:29;12.47;;;8.53;;
51602;SDS011;37954;51.980;5.850;2023-11-21T18:28:42;11.57;;;8.33;;
51602;SDS011;37954;51.980;5.850;2023-11-21T18:32:54;11.90;;;9.77;;
51602;SDS011;37954;51.980;5.850;2023-11-21T18:37:06;13.67;;;9.70;;
51602;SDS011;37954;51.980;5.850;2023-11-21T18:41:22;15.70;;;11.13;;
51602;SDS011;37954;51.980;5.850;2023-11-21T18:45:34;15.07;;;12.00;;
51602;SDS011;37954;51.980;5.850;2023-11-21T18:49:46;16.50;;;13.67;;
51602;SDS011;37954;51.980;5.850;2023-11-21T18:53:58;22.23;;;16.93;;
51602;SDS011;37954;51.980;5.850;2023-11-21T18:58:10;22.73;;;17.40;;
51602;SDS011;37954;51.980;5.850;2023-11-21T19:02:21;19.00;;;13.30;;
51602;SDS011;37954;51.980;5.850;2023-11-21T19:06:33;19.30;;;14.73;;
51602;SDS011;37954;51.980;5.850;2023-11-21T19:10:45;19.37;;;13.50;;
51602;SDS011;37954;51.980;5.850;2023-11-21T19:14:57;18.70;;;13.77;;
51602;SDS011;37954;51.980;5.850;2023-11-21T19:19:09;17.40;;;12.63;;
51602;SDS011;37954;51.980;5.850;2023-11-21T19:23:20;14.57;;;11.37;;
51602;SDS011;37954;51.980;5.850;2023-11-21T19:27:32;15.83;;;12.23;;
51602;SDS011;37954;51.980;5.850;2023-11-21T19:31:44;15.63;;;11.87;;
51602;SDS011;37954;51.980;5.850;2023-11-21T19:35:57;17.23;;;12.07;;
51602;SDS011;37954;51.980;5.850;2023-11-21T19:40:09;16.57;;;13.07;;
51602;SDS011;37954;51.980;5.850;2023-11-21T19:50:24;16.53;;;11.47;;
51602;SDS011;37954;51.980;5.850;2023-11-21T19:54:36;13.77;;;10.40;;
51602;SDS011;37954;51.980;5.850;2023-11-21T19:58:47;14.77;;;10.90;;
51602;SDS011;37954;51.980;5.850;2023-11-21T20:03:00;15.97;;;11.37;;
51602;SDS011;37954;51.980;5.850;2023-11-21T20:07:13;15.17;;;10.43;;
51602;SDS011;37954;51.980;5.850;2023-11-21T20:11:26;15.47;;;9.83;;
51602;SDS011;37954;51.980;5.850;2023-11-21T20:15:38;15.27;;;11.47;;
51602;SDS011;37954;51.980;5.850;2023-11-21T20:19:50;16.90;;;12.07;;
51602;SDS011;37954;51.980;5.850;2023-11-21T20:24:02;14.33;;;10.70;;
51602;SDS011;37954;51.980;5.850;2023-11-21T20:28:14;12.07;;;10.07;;
51602;SDS011;37954;51.980;5.850;2023-11-21T20:32:26;13.90;;;10.13;;
51602;SDS011;37954;51.980;5.850;2023-11-21T20:36:38;12.03;;;9.37;;
51602;SDS011;37954;51.980;5.850;2023-11-21T20:40:51;13.40;;;9.67;;
51602;SDS011;37954;51.980;5.850;2023-11-21T20:45:03;15.27;;;10.27;;
51602;SDS011;37954;51.980;5.850;2023-11-21T20:49:15;10.53;;;9.37;;
51602;SDS011;37954;51.980;5.850;2023-11-21T20:53:27;13.10;;;9.67;;
51602;SDS011;37954;51.980;5.850;2023-11-21T20:57:39;15.87;;;11.40;;
51602;SDS011;37954;51.980;5.850;2023-11-21T21:01:52;17.13;;;12.17;;
51602;SDS011;37954;51.980;5.850;2023-11-21T21:06:04;17.60;;;10.90;;
51602;SDS011;37954;51.980;5.850;2023-11-21T21:10:18;14.30;;;9.97;;
51602;SDS011;37954;51.980;5.850;2023-11-21T21:14:29;12.50;;;9.73;;
51602;SDS011;37954;51.980;5.850;2023-11-21T21:18:41;12.87;;;9.97;;
51602;SDS011;37954;51.980;5.850;2023-11-21T21:22:53;12.27;;;8.67;;
51602;SDS011;37954;51.980;5.850;2023-11-21T21:27:08;12.43;;;10.10;;
51602;SDS011;37954;51.980;5.850;2023-11-21T21:31:19;15.27;;;9.97;;
51602;SDS011;37954;51.980;5.850;2023-11-21T21:35:32;13.97;;;10.37;;
51602;SDS011;37954;51.980;5.850;2023-11-21T21:39:43;11.67;;;9.10;;
51602;SDS011;37954;51.980;5.850;2023-11-21T21:43:56;12.77;;;9.30;;
51602;SDS011;37954;51.980;5.850;2023-11-21T21:48:09;12.97;;;9.43;;
51602;SDS011;37954;51.980;5.850;2023-11-21T21:52:32;13.03;;;9.37;;
51602;SDS011;37954;51.980;5.850;2023-11-21T21:56:47;12.83;;;9.33;;
51602;SDS011;37954;51.980;5.850;2023-11-21T22:00:59;11.30;;;9.33;;
51602;SDS011;37954;51.980;5.850;2023-11-21T22:05:14;12.43;;;9.27;;
51602;SDS011;37954;51.980;5.850;2023-11-21T22:09:25;11.90;;;9.50;;
51602;SDS011;37954;51.980;5.850;2023-11-21T22:13:37;16.30;;;10.17;;
51602;SDS011;37954;51.980;5.850;2023-11-21T22:17:49;11.40;;;9.30;;
51602;SDS011;37954;51.980;5.850;2023-11-21T22:22:02;11.30;;;8.83;;
51602;SDS011;37954;51.980;5.850;2023-11-21T22:26:14;15.03;;;9.30;;
51602;SDS011;37954;51.980;5.850;2023-11-21T22:30:31;13.10;;;9.63;;
51602;SDS011;37954;51.980;5.850;2023-11-21T22:34:43;13.23;;;9.20;;
51602;SDS011;37954;51.980;5.850;2023-11-21T22:38:55;10.47;;;8.40;;
51602;SDS011;37954;51.980;5.850;2023-11-21T22:43:06;12.37;;;9.33;;
51602;SDS011;37954;51.980;5.850;2023-11-21T22:47:18;14.13;;;9.60;;
51602;SDS011;37954;51.980;5.850;2023-11-21T22:51:33;13.47;;;9.20;;
51602;SDS011;37954;51.980;5.850;2023-11-21T22:55:44;13.43;;;9.17;;
51602;SDS011;37954;51.980;5.850;2023-11-21T22:59:56;12.10;;;8.50;;
51602;SDS011;37954;51.980;5.850;2023-11-21T23:04:08;11.37;;;9.10;;
51602;SDS011;37954;51.980;5.850;2023-11-21T23:08:20;10.90;;;9.00;;
51602;SDS011;37954;51.980;5.850;2023-11-21T23:12:31;12.53;;;9.10;;
51602;SDS011;37954;51.980;5.850;2023-11-21T23:16:43;12.23;;;8.50;;
51602;SDS011;37954;51.980;5.850;2023-11-21T23:20:55;12.50;;;9.30;;
51602;SDS011;37954;51.980;5.850;2023-11-21T23:25:07;14.00;;;9.43;;
51602;SDS011;37954;51.980;5.850;2023-11-21T23:29:20;14.13;;;10.13;;
51602;SDS011;37954;51.980;5.850;2023-11-21T23:33:34;12.60;;;9.20;;
51602;SDS011;37954;51.980;5.850;2023-11-21T23:37:45;16.90;;;9.40;;
51602;SDS011;37954;51.980;5.850;2023-11-21T23:41:57;12.07;;;9.10;;
51602;SDS011;37954;51.980;5.850;2023-11-21T23:46:09;14.97;;;8.97;;
51602;SDS011;37954;51.980;5.850;2023-11-21T23:50:23;11.73;;;9.10;;
51602;SDS011;37954;51.980;5.850;2023-11-21T23:54:36;12.27;;;8.70;;
51602;SDS011;37954;51.980;5.850;2023-11-21T23:58:48;10.70;;;8.87;;
